Primeiro de Maio, Brazil
Current Conditions -  °F | °C
As of 7:00 AM on Wednesday 28 Jan 2015 (Local Time) from SBLO Reporting Station
Broken Clouds Broken Clouds  
Wind Chill: 70°   Ceiling: 300
Heat Index: 70°   Visibility: 5mi
Dew Point: 70°   Wind: 3mph
Humidity: 100%   Direction: 40°NE
Pressure: 29.97"   Gusts: NA
Location:  22.85°S, 51.03°W
Report Text: SBLO 280900Z 04003KT 8000 BKN003 BKN012 21/21 Q1015
Loading
Personal Weather Stations






























Interactive Weather Map New forecast layout! Learn more

10-Day Weather Forecast

Advertisements
Track Severe Weather on mobile